This is the latest recevied weather packets stored in our database for station/object KE2GQQ. If no packets are shown the sender has not sent any weather packets the latest 10 day(s).
| Time | Temp. | Humidity | Pressure | Rain* | Wind** | Luminosity | Snow |
|---|---|---|---|---|---|---|---|
| 1777980316 | 14.44° C | 79% | 1011.3 hPa | 0 mm | - | 28 W/m² | - |
| 1777979716 | 13.89° C | 81% | 1011.3 hPa | 0 mm | - | 37 W/m² | - |
| 1777977316 | 12.78° C | 86% | 1011.1 hPa | 0 mm | - | 16 W/m² | - |
| 1777973117 | 12.22° C | 87% | 1010.3 hPa | 0 mm | - | 0 W/m² | - |
| 1777969516 | 12.78° C | 85% | 1010.3 hPa | 0 mm | - | 0 W/m² | - |
| 1777966516 | 12.78° C | 87% | 1010.2 hPa | 0 mm | - | 0 W/m² | - |
| 1777964716 | 12.78° C | 85% | 1010.1 hPa | 0 mm | - | 0 W/m² | - |
| 1777956319 | 15.56° C | 68% | 1010.7 hPa | 0 mm | - | 0 W/m² | - |
| 1777949717 | 15.56° C | 66% | 1011 hPa | 0 mm | - | 0 W/m² | - |
| 1777949117 | 15.56° C | 66% | 1011.1 hPa | 0 mm | - | 0 W/m² | - |
| 1777947317 | 15.56° C | 65% | 1011.1 hPa | 0 mm | - | 0 W/m² | - |
| 1777937118 | 16.11° C | 63% | 1009.4 hPa | 0 mm | - | 10 W/m² | - |
| 1777932316 | 18.33° C | 53% | 1009.6 hPa | 0 mm | - | 29 W/m² | - |
| 1777929917 | 19.44° C | 51% | 1009.6 hPa | 0 mm | - | 35 W/m² | - |
| 1777926918 | 20.56° C | 48% | 1009.5 hPa | 0 mm | - | 37 W/m² | - |
| 1777925718 | 20.56° C | 47% | 1009.7 hPa | 0 mm | - | 39 W/m² | - |
| 1777923916 | 21.11° C | 45% | 1009.8 hPa | 0 mm | - | 43 W/m² | - |
| 1777919137 | 21.67° C | 40% | 1010.5 hPa | 0 mm | - | 88 W/m² | - |
| 1777913718 | 20° C | 40% | 1011.4 hPa | 0 mm | - | 119 W/m² | - |
| 1777905917 | 18.33° C | 44% | 1013 hPa | 0 mm | - | 313 W/m² | - |
| 1777902316 | 17.22° C | 47% | 1013.4 hPa | 0 mm | - | 650 W/m² | - |
| 1777901736 | 17.22° C | 49% | 1013.5 hPa | 0 mm | - | 618 W/m² | - |
| 1777899937 | 15.56° C | 51% | 1013.8 hPa | 0 mm | - | 519 W/m² | - |
| 1777899316 | 15.56° C | 52% | 1013.9 hPa | 0 mm | - | 482 W/m² | - |
| 1777898736 | 15.56° C | 52% | 1014 hPa | 0 mm | - | 448 W/m² | - |
* Rain latest hour (hover to see other rain measurements)
** Current wind speed in m/s (hover to see current wind gust speed)